Pagrindinis puslapis
METAR-TAF:

METAR-TAF

Oro uostai :

Gvidonija, Italija

platuma: 42-00N, ilguma: 012-44E, Aukštis: 88 m

METAR: trūkstamas

Laikas: 23:50 (22:50 UTC)

Prognozė

Ataskaita buvo paskelbta 32 valandos ir 50 minutes, ne 14:00 UTC
Prognozė galioja nuo 05 metu 15 UTC su 05 metu 24 UTC
Vėjas 7 kt iš Pietvakarių
Matomumas 10 km arba daugiau
Išsisklaidę debesys ne aukštis 3000 ft
Išsisklaidę debesys ne aukštis 5000 ft

TAF: LIRG 051400Z 0515/0524 22007KT 9999 SCT030 SCT050

Orai ataskaitas ir orų prognozės (METAR, TAF).

turimą stotys yra geltonos ir raudonos taškus žemėlapyje.

Perkelti pele per norėdami pamatyti stoties vardą.

Tada spustelėkite, norėdami matyti oro stebėjimo ir prognozės.

Norėdami pakeisti žemėlapį: spustelėkite ant žalios mygtukų su juodo kryžiaus žemyn,; žalią mygtuką su brūkšneliu, jei norite nutolinti; arba žalių rodyklių gretimoms žemėlapius.


METAR-TAF: